This is the latest recevied weather packets stored in our database for station/object W4SMH. If no packets are shown the sender has not sent any weather packets the latest 10 day(s).
| Time | Temp. | Humidity | Pressure | Rain* | Wind** | Luminosity | Snow |
|---|---|---|---|---|---|---|---|
| 1777788410 | 3.33° C | 91% | 1014.4 hPa | 0 mm | - | 23 W/m² | - |
| 1777788405 | 3.33° C | 91% | 1014.2 hPa | 0 mm | - | 18 W/m² | - |
| 1777788357 | 3.33° C | 91% | 1014.4 hPa | 0 mm | - | 12 W/m² | - |
| 1777788095 | 3.33° C | 91% | 1014.2 hPa | 0 mm | - | 16 W/m² | - |
| 1777788074 | 6.67° C | 65% | 1012.1 hPa | 0 mm | - | 0 W/m² | - |
| 1777787671 | 6.67° C | 65% | 1012.3 hPa | 0 mm | - | 0 W/m² | - |
| 1777787445 | 6.67° C | 66% | 1012.2 hPa | 0 mm | - | 0 W/m² | - |
| 1777787421 | 3.33° C | 91% | 1014.1 hPa | 0 mm | - | 0 W/m² | - |
| 1777787408 | 3.33° C | 91% | 1014.1 hPa | 0 mm | - | 0 W/m² | - |
| 1777787284 | 6.67° C | 66% | 1012.3 hPa | 0 mm | - | 0 W/m² | - |
| 1777787140 | 6.67° C | 65% | 1012.3 hPa | 0 mm | - | 0 W/m² | - |
| 1777787053 | 6.67° C | 66% | 1012.3 hPa | 0 mm | - | 0 W/m² | - |
| 1777786092 | 6.67° C | 65% | 1012.3 hPa | 0 mm | - | 0 W/m² | - |
| 1777786066 | 6.67° C | 65% | 1012.3 hPa | 0 mm | - | 0 W/m² | - |
| 1777785713 | 6.67° C | 64% | 1012.5 hPa | 0 mm | - | 0 W/m² | - |
| 1777784728 | 6.67° C | 64% | 1012.6 hPa | 0 mm | - | 0 W/m² | - |
| 1777784303 | 7.22° C | 64% | 1012.7 hPa | 0 mm | - | 0 W/m² | - |
| 1777784083 | 7.22° C | 64% | 1012.6 hPa | 0 mm | - | 0 W/m² | - |
| 1777783642 | 7.22° C | 64% | 1012.6 hPa | 0 mm | - | 0 W/m² | - |
| 1777783195 | 3.33° C | 91% | 1013.9 hPa | 0 mm | - | 0 W/m² | - |
| 1777782704 | 7.22° C | 64% | 1012.7 hPa | 0 mm | - | 0 W/m² | - |
| 1777781901 | 7.22° C | 63% | 1012.8 hPa | 0 mm | - | 0 W/m² | - |
| 1777781840 | 7.22° C | 63% | 1013 hPa | 0 mm | - | 0 W/m² | - |
| 1777781146 | 7.78° C | 64% | 1012.9 hPa | 0 mm | - | 0 W/m² | - |
| 1777781061 | 7.78° C | 64% | 1012.9 hPa | 0 mm | - | 0 W/m² | - |
* Rain latest hour (hover to see other rain measurements)
** Current wind speed in m/s (hover to see current wind gust speed)